sensor_id;sensor_type;location;lat;lon;timestamp;P1;durP1;ratioP1;P2;durP2;ratioP2
21661;SDS011;10992;48.170;8.596;2023-09-08T00:02:25;11.23;;;10.02;;
21661;SDS011;10992;48.170;8.596;2023-09-08T00:04:53;11.45;;;10.35;;
21661;SDS011;10992;48.170;8.596;2023-09-08T00:07:20;12.73;;;11.15;;
21661;SDS011;10992;48.170;8.596;2023-09-08T00:09:48;12.65;;;11.35;;
21661;SDS011;10992;48.170;8.596;2023-09-08T00:12:15;11.98;;;10.77;;
21661;SDS011;10992;48.170;8.596;2023-09-08T00:14:42;12.55;;;11.35;;
21661;SDS011;10992;48.170;8.596;2023-09-08T00:17:09;11.60;;;10.40;;
21661;SDS011;10992;48.170;8.596;2023-09-08T00:19:36;13.20;;;11.90;;
21661;SDS011;10992;48.170;8.596;2023-09-08T00:22:03;11.38;;;10.13;;
21661;SDS011;10992;48.170;8.596;2023-09-08T00:24:33;11.80;;;10.70;;
21661;SDS011;10992;48.170;8.596;2023-09-08T00:27:00;13.20;;;11.80;;
21661;SDS011;10992;48.170;8.596;2023-09-08T00:29:27;12.43;;;11.23;;
21661;SDS011;10992;48.170;8.596;2023-09-08T00:31:54;16.05;;;12.07;;
21661;SDS011;10992;48.170;8.596;2023-09-08T00:34:21;14.65;;;11.52;;
21661;SDS011;10992;48.170;8.596;2023-09-08T00:36:48;13.00;;;11.63;;
21661;SDS011;10992;48.170;8.596;2023-09-08T00:39:15;12.10;;;10.90;;
21661;SDS011;10992;48.170;8.596;2023-09-08T00:41:42;14.18;;;11.57;;
21661;SDS011;10992;48.170;8.596;2023-09-08T00:44:09;11.57;;;10.40;;
21661;SDS011;10992;48.170;8.596;2023-09-08T00:46:37;12.50;;;11.30;;
21661;SDS011;10992;48.170;8.596;2023-09-08T00:49:05;11.55;;;10.45;;
21661;SDS011;10992;48.170;8.596;2023-09-08T00:51:32;12.43;;;11.10;;
21661;SDS011;10992;48.170;8.596;2023-09-08T00:54:01;11.25;;;10.15;;
21661;SDS011;10992;48.170;8.596;2023-09-08T00:56:28;13.10;;;10.52;;
21661;SDS011;10992;48.170;8.596;2023-09-08T00:58:56;11.95;;;10.30;;
21661;SDS011;10992;48.170;8.596;2023-09-08T01:01:23;12.00;;;10.80;;
21661;SDS011;10992;48.170;8.596;2023-09-08T01:03:50;11.80;;;10.10;;
21661;SDS011;10992;48.170;8.596;2023-09-08T01:06:17;12.38;;;10.30;;
21661;SDS011;10992;48.170;8.596;2023-09-08T01:08:44;10.98;;;9.88;;
21661;SDS011;10992;48.170;8.596;2023-09-08T01:11:12;11.27;;;10.00;;
21661;SDS011;10992;48.170;8.596;2023-09-08T01:13:39;10.77;;;9.32;;
21661;SDS011;10992;48.170;8.596;2023-09-08T01:16:07;13.82;;;10.25;;
21661;SDS011;10992;48.170;8.596;2023-09-08T01:18:34;11.88;;;9.43;;
21661;SDS011;10992;48.170;8.596;2023-09-08T01:23:59;9.13;;;8.23;;
21661;SDS011;10992;48.170;8.596;2023-09-08T01:26:52;11.50;;;10.30;;
21661;SDS011;10992;48.170;8.596;2023-09-08T01:29:19;11.40;;;9.88;;
21661;SDS011;10992;48.170;8.596;2023-09-08T01:31:50;10.85;;;9.80;;
21661;SDS011;10992;48.170;8.596;2023-09-08T01:34:18;11.20;;;9.88;;
21661;SDS011;10992;48.170;8.596;2023-09-08T01:36:46;11.57;;;9.55;;
21661;SDS011;10992;48.170;8.596;2023-09-08T01:39:13;9.77;;;8.85;;
21661;SDS011;10992;48.170;8.596;2023-09-08T01:41:40;10.88;;;9.32;;
21661;SDS011;10992;48.170;8.596;2023-09-08T01:44:06;11.75;;;10.07;;
21661;SDS011;10992;48.170;8.596;2023-09-08T01:46:36;10.70;;;9.57;;
21661;SDS011;10992;48.170;8.596;2023-09-08T01:49:05;11.63;;;10.25;;
21661;SDS011;10992;48.170;8.596;2023-09-08T01:51:32;11.88;;;10.30;;
21661;SDS011;10992;48.170;8.596;2023-09-08T01:53:59;11.65;;;10.45;;
21661;SDS011;10992;48.170;8.596;2023-09-08T01:56:27;11.48;;;10.27;;
21661;SDS011;10992;48.170;8.596;2023-09-08T01:58:55;13.18;;;11.77;;
21661;SDS011;10992;48.170;8.596;2023-09-08T02:01:22;12.40;;;10.27;;
21661;SDS011;10992;48.170;8.596;2023-09-08T02:03:49;13.13;;;11.73;;
21661;SDS011;10992;48.170;8.596;2023-09-08T02:06:16;12.98;;;11.57;;
21661;SDS011;10992;48.170;8.596;2023-09-08T02:08:43;14.20;;;12.35;;
21661;SDS011;10992;48.170;8.596;2023-09-08T02:11:09;13.52;;;12.13;;
21661;SDS011;10992;48.170;8.596;2023-09-08T02:13:38;15.85;;;13.43;;
21661;SDS011;10992;48.170;8.596;2023-09-08T02:16:12;14.50;;;13.00;;
21661;SDS011;10992;48.170;8.596;2023-09-08T02:18:44;15.80;;;13.65;;
21661;SDS011;10992;48.170;8.596;2023-09-08T02:21:11;14.70;;;13.30;;
21661;SDS011;10992;48.170;8.596;2023-09-08T02:23:38;15.45;;;13.95;;
21661;SDS011;10992;48.170;8.596;2023-09-08T02:26:06;13.88;;;12.52;;
21661;SDS011;10992;48.170;8.596;2023-09-08T02:28:33;15.25;;;12.80;;
21661;SDS011;10992;48.170;8.596;2023-09-08T02:31:01;14.70;;;13.25;;
21661;SDS011;10992;48.170;8.596;2023-09-08T02:33:28;15.80;;;13.80;;
21661;SDS011;10992;48.170;8.596;2023-09-08T02:36:00;14.90;;;13.40;;
21661;SDS011;10992;48.170;8.596;2023-09-08T02:38:33;14.10;;;12.70;;
21661;SDS011;10992;48.170;8.596;2023-09-08T02:41:01;14.82;;;13.30;;
21661;SDS011;10992;48.170;8.596;2023-09-08T02:43:28;15.23;;;13.43;;
21661;SDS011;10992;48.170;8.596;2023-09-08T02:45:56;14.30;;;12.68;;
21661;SDS011;10992;48.170;8.596;2023-09-08T02:48:24;16.85;;;14.18;;
21661;SDS011;10992;48.170;8.596;2023-09-08T02:50:51;16.83;;;13.98;;
21661;SDS011;10992;48.170;8.596;2023-09-08T02:53:20;15.82;;;14.05;;
21661;SDS011;10992;48.170;8.596;2023-09-08T02:55:48;14.73;;;13.10;;
21661;SDS011;10992;48.170;8.596;2023-09-08T02:58:15;14.95;;;13.35;;
21661;SDS011;10992;48.170;8.596;2023-09-08T03:00:42;15.00;;;13.50;;
21661;SDS011;10992;48.170;8.596;2023-09-08T03:03:09;16.48;;;14.25;;
21661;SDS011;10992;48.170;8.596;2023-09-08T03:05:36;16.02;;;13.98;;
21661;SDS011;10992;48.170;8.596;2023-09-08T03:08:03;16.30;;;14.27;;
21661;SDS011;10992;48.170;8.596;2023-09-08T03:10:32;15.15;;;13.75;;
21661;SDS011;10992;48.170;8.596;2023-09-08T03:13:03;16.00;;;14.18;;
21661;SDS011;10992;48.170;8.596;2023-09-08T03:15:30;15.65;;;14.15;;
21661;SDS011;10992;48.170;8.596;2023-09-08T03:17:58;15.25;;;13.85;;
21661;SDS011;10992;48.170;8.596;2023-09-08T03:20:26;17.75;;;15.95;;
21661;SDS011;10992;48.170;8.596;2023-09-08T03:22:54;17.40;;;15.60;;
21661;SDS011;10992;48.170;8.596;2023-09-08T03:25:21;17.33;;;15.52;;
21661;SDS011;10992;48.170;8.596;2023-09-08T03:27:48;16.60;;;14.68;;
21661;SDS011;10992;48.170;8.596;2023-09-08T03:30:15;15.70;;;14.20;;
21661;SDS011;10992;48.170;8.596;2023-09-08T03:32:42;16.42;;;14.85;;
21661;SDS011;10992;48.170;8.596;2023-09-08T03:35:09;16.85;;;15.05;;
21661;SDS011;10992;48.170;8.596;2023-09-08T03:37:38;18.17;;;14.45;;
21661;SDS011;10992;48.170;8.596;2023-09-08T03:40:05;16.90;;;15.20;;
21661;SDS011;10992;48.170;8.596;2023-09-08T03:42:33;16.23;;;14.63;;
21661;SDS011;10992;48.170;8.596;2023-09-08T03:45:01;16.08;;;14.57;;
21661;SDS011;10992;48.170;8.596;2023-09-08T03:47:29;17.48;;;15.68;;
21661;SDS011;10992;48.170;8.596;2023-09-08T03:49:56;16.30;;;14.60;;
21661;SDS011;10992;48.170;8.596;2023-09-08T03:52:24;17.58;;;15.70;;
21661;SDS011;10992;48.170;8.596;2023-09-08T03:54:51;17.33;;;15.55;;
21661;SDS011;10992;48.170;8.596;2023-09-08T03:57:18;16.90;;;15.07;;
21661;SDS011;10992;48.170;8.596;2023-09-08T03:59:45;17.50;;;15.07;;
21661;SDS011;10992;48.170;8.596;2023-09-08T04:02:12;17.58;;;15.70;;
21661;SDS011;10992;48.170;8.596;2023-09-08T04:04:39;19.13;;;17.23;;
21661;SDS011;10992;48.170;8.596;2023-09-08T04:07:07;18.55;;;16.67;;
21661;SDS011;10992;48.170;8.596;2023-09-08T04:09:34;18.63;;;16.70;;
21661;SDS011;10992;48.170;8.596;2023-09-08T04:12:01;18.95;;;17.13;;
21661;SDS011;10992;48.170;8.596;2023-09-08T04:14:29;18.98;;;15.98;;
21661;SDS011;10992;48.170;8.596;2023-09-08T04:16:56;18.60;;;16.63;;
21661;SDS011;10992;48.170;8.596;2023-09-08T04:19:23;17.23;;;15.43;;
21661;SDS011;10992;48.170;8.596;2023-09-08T04:21:50;17.38;;;15.57;;
21661;SDS011;10992;48.170;8.596;2023-09-08T04:24:17;18.42;;;16.52;;
21661;SDS011;10992;48.170;8.596;2023-09-08T04:26:44;17.75;;;15.95;;
21661;SDS011;10992;48.170;8.596;2023-09-08T04:29:11;18.35;;;16.38;;
21661;SDS011;10992;48.170;8.596;2023-09-08T04:31:39;18.73;;;16.92;;
21661;SDS011;10992;48.170;8.596;2023-09-08T04:34:06;18.25;;;16.25;;
21661;SDS011;10992;48.170;8.596;2023-09-08T04:36:34;20.23;;;18.13;;
21661;SDS011;10992;48.170;8.596;2023-09-08T04:39:01;20.40;;;18.23;;
21661;SDS011;10992;48.170;8.596;2023-09-08T04:41:28;20.88;;;18.20;;
21661;SDS011;10992;48.170;8.596;2023-09-08T04:43:55;21.85;;;19.55;;
21661;SDS011;10992;48.170;8.596;2023-09-08T04:46:24;22.27;;;19.63;;
21661;SDS011;10992;48.170;8.596;2023-09-08T04:48:51;21.10;;;19.00;;
21661;SDS011;10992;48.170;8.596;2023-09-08T04:51:21;22.38;;;19.80;;
21661;SDS011;10992;48.170;8.596;2023-09-08T04:53:48;21.77;;;19.45;;
21661;SDS011;10992;48.170;8.596;2023-09-08T04:56:15;21.88;;;19.45;;
21661;SDS011;10992;48.170;8.596;2023-09-08T04:58:43;23.80;;;20.17;;
21661;SDS011;10992;48.170;8.596;2023-09-08T05:01:12;22.50;;;20.20;;
21661;SDS011;10992;48.170;8.596;2023-09-08T05:03:39;22.23;;;19.83;;
21661;SDS011;10992;48.170;8.596;2023-09-08T05:06:07;23.33;;;20.83;;
21661;SDS011;10992;48.170;8.596;2023-09-08T05:08:34;25.35;;;20.92;;
21661;SDS011;10992;48.170;8.596;2023-09-08T05:11:02;22.75;;;20.35;;
21661;SDS011;10992;48.170;8.596;2023-09-08T05:13:30;24.23;;;20.77;;
21661;SDS011;10992;48.170;8.596;2023-09-08T05:16:00;23.00;;;20.58;;
21661;SDS011;10992;48.170;8.596;2023-09-08T05:18:40;23.60;;;19.95;;
21661;SDS011;10992;48.170;8.596;2023-09-08T05:21:08;20.20;;;18.20;;
21661;SDS011;10992;48.170;8.596;2023-09-08T05:23:35;18.98;;;16.60;;
21661;SDS011;10992;48.170;8.596;2023-09-08T05:26:03;15.90;;;14.40;;
21661;SDS011;10992;48.170;8.596;2023-09-08T05:28:30;15.77;;;13.52;;
21661;SDS011;10992;48.170;8.596;2023-09-08T05:30:57;15.25;;;13.65;;
21661;SDS011;10992;48.170;8.596;2023-09-08T05:33:24;14.07;;;12.57;;
21661;SDS011;10992;48.170;8.596;2023-09-08T05:35:52;17.42;;;13.98;;
21661;SDS011;10992;48.170;8.596;2023-09-08T05:38:19;15.15;;;13.65;;
21661;SDS011;10992;48.170;8.596;2023-09-08T05:40:46;18.27;;;14.35;;
21661;SDS011;10992;48.170;8.596;2023-09-08T05:43:14;15.30;;;13.80;;
21661;SDS011;10992;48.170;8.596;2023-09-08T05:45:42;15.05;;;13.63;;
21661;SDS011;10992;48.170;8.596;2023-09-08T05:48:09;12.38;;;11.07;;
21661;SDS011;10992;48.170;8.596;2023-09-08T05:50:37;10.68;;;9.57;;
21661;SDS011;10992;48.170;8.596;2023-09-08T05:53:06;12.38;;;10.65;;
21661;SDS011;10992;48.170;8.596;2023-09-08T05:55:33;10.43;;;9.43;;
21661;SDS011;10992;48.170;8.596;2023-09-08T05:58:00;10.25;;;9.23;;
21661;SDS011;10992;48.170;8.596;2023-09-08T06:00:27;9.48;;;8.48;;
21661;SDS011;10992;48.170;8.596;2023-09-08T06:02:57;11.15;;;9.45;;
21661;SDS011;10992;48.170;8.596;2023-09-08T06:05:38;10.15;;;9.15;;
21661;SDS011;10992;48.170;8.596;2023-09-08T06:08:05;9.15;;;8.25;;
21661;SDS011;10992;48.170;8.596;2023-09-08T06:10:38;9.23;;;8.32;;
21661;SDS011;10992;48.170;8.596;2023-09-08T06:13:06;9.02;;;7.90;;
21661;SDS011;10992;48.170;8.596;2023-09-08T06:15:35;10.00;;;8.93;;
21661;SDS011;10992;48.170;8.596;2023-09-08T06:18:02;9.60;;;8.60;;
21661;SDS011;10992;48.170;8.596;2023-09-08T06:20:30;9.93;;;8.25;;
21661;SDS011;10992;48.170;8.596;2023-09-08T06:22:57;9.10;;;8.20;;
21661;SDS011;10992;48.170;8.596;2023-09-08T06:25:24;9.43;;;8.48;;
21661;SDS011;10992;48.170;8.596;2023-09-08T06:27:51;11.25;;;7.93;;
21661;SDS011;10992;48.170;8.596;2023-09-08T06:30:18;10.15;;;8.00;;
21661;SDS011;10992;48.170;8.596;2023-09-08T06:32:45;8.40;;;7.50;;
21661;SDS011;10992;48.170;8.596;2023-09-08T06:35:12;9.45;;;8.40;;
21661;SDS011;10992;48.170;8.596;2023-09-08T06:37:39;8.30;;;7.45;;
21661;SDS011;10992;48.170;8.596;2023-09-08T06:40:07;9.43;;;7.93;;
21661;SDS011;10992;48.170;8.596;2023-09-08T06:42:34;9.85;;;7.80;;
21661;SDS011;10992;48.170;8.596;2023-09-08T06:45:11;9.15;;;8.25;;
21661;SDS011;10992;48.170;8.596;2023-09-08T06:47:38;11.95;;;8.80;;
21661;SDS011;10992;48.170;8.596;2023-09-08T06:50:05;10.52;;;9.00;;
21661;SDS011;10992;48.170;8.596;2023-09-08T06:52:33;9.75;;;8.75;;
21661;SDS011;10992;48.170;8.596;2023-09-08T06:55:00;8.82;;;7.53;;
21661;SDS011;10992;48.170;8.596;2023-09-08T06:57:27;8.27;;;7.47;;
21661;SDS011;10992;48.170;8.596;2023-09-08T06:59:54;10.50;;;7.82;;
21661;SDS011;10992;48.170;8.596;2023-09-08T07:02:21;11.30;;;8.02;;
21661;SDS011;10992;48.170;8.596;2023-09-08T07:04:48;8.55;;;7.65;;
21661;SDS011;10992;48.170;8.596;2023-09-08T07:07:16;10.88;;;8.30;;
21661;SDS011;10992;48.170;8.596;2023-09-08T07:09:45;12.20;;;7.93;;
21661;SDS011;10992;48.170;8.596;2023-09-08T07:12:12;18.00;;;7.28;;
21661;SDS011;10992;48.170;8.596;2023-09-08T07:14:39;9.40;;;8.23;;
21661;SDS011;10992;48.170;8.596;2023-09-08T07:17:06;9.43;;;8.43;;
21661;SDS011;10992;48.170;8.596;2023-09-08T07:19:33;8.73;;;7.45;;
21661;SDS011;10992;48.170;8.596;2023-09-08T07:22:00;9.15;;;8.25;;
21661;SDS011;10992;48.170;8.596;2023-09-08T07:24:27;13.30;;;8.45;;
21661;SDS011;10992;48.170;8.596;2023-09-08T07:26:54;7.85;;;7.15;;
21661;SDS011;10992;48.170;8.596;2023-09-08T07:29:22;9.98;;;7.32;;
21661;SDS011;10992;48.170;8.596;2023-09-08T07:31:49;11.02;;;7.90;;
21661;SDS011;10992;48.170;8.596;2023-09-08T07:34:17;8.18;;;7.38;;
21661;SDS011;10992;48.170;8.596;2023-09-08T07:36:45;7.88;;;7.18;;
21661;SDS011;10992;48.170;8.596;2023-09-08T07:39:12;9.18;;;7.18;;
21661;SDS011;10992;48.170;8.596;2023-09-08T07:41:39;8.80;;;7.10;;
21661;SDS011;10992;48.170;8.596;2023-09-08T07:44:08;10.18;;;7.43;;
21661;SDS011;10992;48.170;8.596;2023-09-08T07:46:35;8.23;;;6.63;;
21661;SDS011;10992;48.170;8.596;2023-09-08T07:49:02;8.15;;;7.35;;
21661;SDS011;10992;48.170;8.596;2023-09-08T07:51:29;7.45;;;6.68;;
21661;SDS011;10992;48.170;8.596;2023-09-08T07:53:57;7.50;;;6.78;;
21661;SDS011;10992;48.170;8.596;2023-09-08T07:56:24;12.13;;;7.40;;
21661;SDS011;10992;48.170;8.596;2023-09-08T07:58:51;15.45;;;8.52;;
21661;SDS011;10992;48.170;8.596;2023-09-08T08:01:18;11.98;;;8.15;;
21661;SDS011;10992;48.170;8.596;2023-09-08T08:03:45;6.93;;;5.50;;
21661;SDS011;10992;48.170;8.596;2023-09-08T08:06:12;8.05;;;6.18;;
21661;SDS011;10992;48.170;8.596;2023-09-08T08:08:39;7.43;;;6.28;;
21661;SDS011;10992;48.170;8.596;2023-09-08T08:11:10;13.43;;;7.93;;
21661;SDS011;10992;48.170;8.596;2023-09-08T08:13:41;7.38;;;6.68;;
21661;SDS011;10992;48.170;8.596;2023-09-08T08:16:08;8.52;;;5.85;;
21661;SDS011;10992;48.170;8.596;2023-09-08T08:18:35;8.60;;;6.82;;
21661;SDS011;10992;48.170;8.596;2023-09-08T08:21:02;7.22;;;5.57;;
21661;SDS011;10992;48.170;8.596;2023-09-08T08:23:30;7.57;;;5.63;;
21661;SDS011;10992;48.170;8.596;2023-09-08T08:25:58;7.45;;;5.70;;
21661;SDS011;10992;48.170;8.596;2023-09-08T08:28:25;7.57;;;5.05;;
21661;SDS011;10992;48.170;8.596;2023-09-08T08:30:52;6.63;;;5.95;;
21661;SDS011;10992;48.170;8.596;2023-09-08T08:33:19;11.50;;;6.13;;
21661;SDS011;10992;48.170;8.596;2023-09-08T08:35:50;6.55;;;4.90;;
21661;SDS011;10992;48.170;8.596;2023-09-08T08:38:19;5.10;;;4.55;;
21661;SDS011;10992;48.170;8.596;2023-09-08T08:40:46;6.55;;;5.45;;
21661;SDS011;10992;48.170;8.596;2023-09-08T08:43:13;5.28;;;4.30;;
21661;SDS011;10992;48.170;8.596;2023-09-08T08:45:41;7.22;;;5.22;;
21661;SDS011;10992;48.170;8.596;2023-09-08T08:48:10;8.27;;;6.07;;
21661;SDS011;10992;48.170;8.596;2023-09-08T08:50:41;6.53;;;5.80;;
21661;SDS011;10992;48.170;8.596;2023-09-08T08:53:09;6.38;;;5.05;;
21661;SDS011;10992;48.170;8.596;2023-09-08T08:55:38;6.35;;;4.70;;
21661;SDS011;10992;48.170;8.596;2023-09-08T08:58:06;6.13;;;4.88;;
21661;SDS011;10992;48.170;8.596;2023-09-08T09:00:34;7.82;;;5.20;;
21661;SDS011;10992;48.170;8.596;2023-09-08T09:03:04;5.20;;;4.13;;
21661;SDS011;10992;48.170;8.596;2023-09-08T09:05:40;6.72;;;5.28;;
21661;SDS011;10992;48.170;8.596;2023-09-08T09:08:13;5.30;;;4.80;;
21661;SDS011;10992;48.170;8.596;2023-09-08T09:10:41;6.88;;;4.53;;
21661;SDS011;10992;48.170;8.596;2023-09-08T09:13:08;5.03;;;4.32;;
21661;SDS011;10992;48.170;8.596;2023-09-08T09:15:35;5.47;;;4.00;;
21661;SDS011;10992;48.170;8.596;2023-09-08T09:18:03;6.82;;;4.80;;
21661;SDS011;10992;48.170;8.596;2023-09-08T09:20:34;6.10;;;4.30;;
21661;SDS011;10992;48.170;8.596;2023-09-08T09:23:01;8.38;;;4.32;;
21661;SDS011;10992;48.170;8.596;2023-09-08T09:25:29;5.20;;;4.55;;
21661;SDS011;10992;48.170;8.596;2023-09-08T09:27:58;6.20;;;4.05;;
21661;SDS011;10992;48.170;8.596;2023-09-08T09:30:27;7.95;;;4.40;;
21661;SDS011;10992;48.170;8.596;2023-09-08T09:32:58;7.90;;;5.25;;
21661;SDS011;10992;48.170;8.596;2023-09-08T09:38:18;4.90;;;4.20;;
21661;SDS011;10992;48.170;8.596;2023-09-08T09:40:47;3.83;;;3.53;;
21661;SDS011;10992;48.170;8.596;2023-09-08T09:43:15;5.18;;;4.30;;
21661;SDS011;10992;48.170;8.596;2023-09-08T09:45:43;6.65;;;4.18;;
21661;SDS011;10992;48.170;8.596;2023-09-08T09:48:10;4.63;;;4.05;;
21661;SDS011;10992;48.170;8.596;2023-09-08T09:50:39;4.43;;;3.92;;
21661;SDS011;10992;48.170;8.596;2023-09-08T09:53:11;4.40;;;4.00;;
21661;SDS011;10992;48.170;8.596;2023-09-08T09:55:40;5.72;;;4.22;;
21661;SDS011;10992;48.170;8.596;2023-09-08T09:58:10;4.85;;;4.20;;
21661;SDS011;10992;48.170;8.596;2023-09-08T10:00:38;5.28;;;4.20;;
21661;SDS011;10992;48.170;8.596;2023-09-08T10:03:07;6.40;;;4.40;;
21661;SDS011;10992;48.170;8.596;2023-09-08T10:05:36;5.70;;;4.38;;
21661;SDS011;10992;48.170;8.596;2023-09-08T10:08:03;4.60;;;4.15;;
21661;SDS011;10992;48.170;8.596;2023-09-08T10:10:32;4.63;;;3.75;;
21661;SDS011;10992;48.170;8.596;2023-09-08T10:13:05;4.50;;;4.10;;
21661;SDS011;10992;48.170;8.596;2023-09-08T10:15:33;5.88;;;4.45;;
21661;SDS011;10992;48.170;8.596;2023-09-08T10:18:04;5.57;;;4.35;;
21661;SDS011;10992;48.170;8.596;2023-09-08T10:20:34;5.40;;;4.63;;
21661;SDS011;10992;48.170;8.596;2023-09-08T10:25:47;4.10;;;3.75;;
21661;SDS011;10992;48.170;8.596;2023-09-08T10:28:32;4.95;;;4.30;;
21661;SDS011;10992;48.170;8.596;2023-09-08T10:31:00;5.75;;;4.60;;
21661;SDS011;10992;48.170;8.596;2023-09-08T10:33:30;5.25;;;4.15;;
21661;SDS011;10992;48.170;8.596;2023-09-08T10:35:58;4.22;;;3.83;;
21661;SDS011;10992;48.170;8.596;2023-09-08T10:38:35;6.07;;;4.30;;
21661;SDS011;10992;48.170;8.596;2023-09-08T10:43:43;4.72;;;4.10;;
21661;SDS011;10992;48.170;8.596;2023-09-08T10:46:21;7.20;;;4.18;;
21661;SDS011;10992;48.170;8.596;2023-09-08T10:48:49;6.13;;;4.20;;
21661;SDS011;10992;48.170;8.596;2023-09-08T10:51:16;4.30;;;3.63;;
21661;SDS011;10992;48.170;8.596;2023-09-08T10:53:46;5.72;;;3.75;;
21661;SDS011;10992;48.170;8.596;2023-09-08T10:56:14;7.03;;;4.18;;
21661;SDS011;10992;48.170;8.596;2023-09-08T10:58:43;3.55;;;3.17;;
21661;SDS011;10992;48.170;8.596;2023-09-08T11:01:17;6.28;;;4.30;;
21661;SDS011;10992;48.170;8.596;2023-09-08T11:03:49;5.72;;;4.00;;
21661;SDS011;10992;48.170;8.596;2023-09-08T11:06:18;4.53;;;3.78;;
21661;SDS011;10992;48.170;8.596;2023-09-08T11:08:48;4.55;;;4.10;;
21661;SDS011;10992;48.170;8.596;2023-09-08T11:11:17;5.28;;;3.50;;
21661;SDS011;10992;48.170;8.596;2023-09-08T11:13:45;4.57;;;3.88;;
21661;SDS011;10992;48.170;8.596;2023-09-08T11:16:14;6.13;;;3.90;;
21661;SDS011;10992;48.170;8.596;2023-09-08T11:18:41;5.13;;;3.80;;
21661;SDS011;10992;48.170;8.596;2023-09-08T11:21:09;4.05;;;3.65;;
21661;SDS011;10992;48.170;8.596;2023-09-08T11:23:37;5.32;;;4.07;;
21661;SDS011;10992;48.170;8.596;2023-09-08T11:26:05;7.68;;;4.25;;
21661;SDS011;10992;48.170;8.596;2023-09-08T11:28:33;4.85;;;4.45;;
21661;SDS011;10992;48.170;8.596;2023-09-08T11:31:00;5.50;;;3.72;;
21661;SDS011;10992;48.170;8.596;2023-09-08T11:33:32;5.10;;;3.80;;
21661;SDS011;10992;48.170;8.596;2023-09-08T11:36:00;4.65;;;3.92;;
21661;SDS011;10992;48.170;8.596;2023-09-08T11:38:28;4.70;;;4.18;;
21661;SDS011;10992;48.170;8.596;2023-09-08T11:40:57;5.20;;;4.40;;
21661;SDS011;10992;48.170;8.596;2023-09-08T11:43:27;4.88;;;4.25;;
21661;SDS011;10992;48.170;8.596;2023-09-08T11:45:55;6.03;;;4.28;;
21661;SDS011;10992;48.170;8.596;2023-09-08T11:48:24;6.15;;;4.30;;
21661;SDS011;10992;48.170;8.596;2023-09-08T11:50:54;3.72;;;3.42;;
21661;SDS011;10992;48.170;8.596;2023-09-08T11:53:21;5.30;;;3.65;;
21661;SDS011;10992;48.170;8.596;2023-09-08T11:55:49;4.47;;;4.07;;
21661;SDS011;10992;48.170;8.596;2023-09-08T11:58:19;4.72;;;3.97;;
21661;SDS011;10992;48.170;8.596;2023-09-08T12:00:47;4.75;;;3.88;;
21661;SDS011;10992;48.170;8.596;2023-09-08T12:03:15;3.78;;;3.47;;
21661;SDS011;10992;48.170;8.596;2023-09-08T12:05:50;5.03;;;3.17;;
21661;SDS011;10992;48.170;8.596;2023-09-08T12:08:18;5.57;;;3.88;;
21661;SDS011;10992;48.170;8.596;2023-09-08T12:10:45;4.15;;;3.78;;
21661;SDS011;10992;48.170;8.596;2023-09-08T12:13:12;4.63;;;3.90;;
21661;SDS011;10992;48.170;8.596;2023-09-08T12:15:46;5.25;;;3.88;;
21661;SDS011;10992;48.170;8.596;2023-09-08T12:18:13;6.20;;;4.50;;
21661;SDS011;10992;48.170;8.596;2023-09-08T12:20:44;4.38;;;3.53;;
21661;SDS011;10992;48.170;8.596;2023-09-08T12:23:21;7.63;;;3.90;;
21661;SDS011;10992;48.170;8.596;2023-09-08T12:25:49;6.50;;;4.03;;
21661;SDS011;10992;48.170;8.596;2023-09-08T12:28:18;5.00;;;4.50;;
21661;SDS011;10992;48.170;8.596;2023-09-08T12:30:48;4.32;;;3.92;;
21661;SDS011;10992;48.170;8.596;2023-09-08T12:33:16;4.30;;;3.90;;
21661;SDS011;10992;48.170;8.596;2023-09-08T12:35:46;5.75;;;4.35;;
21661;SDS011;10992;48.170;8.596;2023-09-08T12:38:19;4.18;;;3.78;;
21661;SDS011;10992;48.170;8.596;2023-09-08T12:40:46;5.55;;;4.28;;
21661;SDS011;10992;48.170;8.596;2023-09-08T12:43:13;5.03;;;4.10;;
21661;SDS011;10992;48.170;8.596;2023-09-08T12:45:54;6.22;;;4.25;;
21661;SDS011;10992;48.170;8.596;2023-09-08T12:48:21;4.22;;;3.83;;
21661;SDS011;10992;48.170;8.596;2023-09-08T12:50:49;4.32;;;3.70;;
21661;SDS011;10992;48.170;8.596;2023-09-08T12:53:16;5.57;;;3.85;;
21661;SDS011;10992;48.170;8.596;2023-09-08T12:55:44;5.70;;;3.83;;
21661;SDS011;10992;48.170;8.596;2023-09-08T12:58:12;6.95;;;3.90;;
21661;SDS011;10992;48.170;8.596;2023-09-08T13:00:39;4.65;;;3.47;;
21661;SDS011;10992;48.170;8.596;2023-09-08T13:03:06;4.72;;;3.53;;
21661;SDS011;10992;48.170;8.596;2023-09-08T13:05:33;6.43;;;3.90;;
21661;SDS011;10992;48.170;8.596;2023-09-08T13:08:00;5.40;;;3.40;;
21661;SDS011;10992;48.170;8.596;2023-09-08T13:10:27;14.80;;;4.82;;
21661;SDS011;10992;48.170;8.596;2023-09-08T13:12:54;5.75;;;3.88;;
21661;SDS011;10992;48.170;8.596;2023-09-08T13:15:22;7.93;;;3.72;;
21661;SDS011;10992;48.170;8.596;2023-09-08T13:17:50;7.32;;;3.85;;
21661;SDS011;10992;48.170;8.596;2023-09-08T13:20:17;4.10;;;3.70;;
21661;SDS011;10992;48.170;8.596;2023-09-08T13:22:45;4.65;;;4.13;;
21661;SDS011;10992;48.170;8.596;2023-09-08T13:25:12;5.28;;;3.80;;
21661;SDS011;10992;48.170;8.596;2023-09-08T13:27:42;3.97;;;3.33;;
21661;SDS011;10992;48.170;8.596;2023-09-08T13:32:37;6.57;;;4.05;;
21661;SDS011;10992;48.170;8.596;2023-09-08T13:35:05;5.68;;;3.72;;
21661;SDS011;10992;48.170;8.596;2023-09-08T13:37:33;4.78;;;3.83;;
21661;SDS011;10992;48.170;8.596;2023-09-08T13:40:01;4.50;;;3.40;;
21661;SDS011;10992;48.170;8.596;2023-09-08T13:42:30;5.35;;;3.55;;
21661;SDS011;10992;48.170;8.596;2023-09-08T13:44:57;4.55;;;4.00;;
21661;SDS011;10992;48.170;8.596;2023-09-08T13:47:24;5.85;;;4.07;;
21661;SDS011;10992;48.170;8.596;2023-09-08T13:49:52;4.55;;;3.85;;
21661;SDS011;10992;48.170;8.596;2023-09-08T13:52:23;6.75;;;3.85;;
21661;SDS011;10992;48.170;8.596;2023-09-08T13:54:55;6.65;;;3.88;;
21661;SDS011;10992;48.170;8.596;2023-09-08T13:57:25;5.30;;;3.90;;
21661;SDS011;10992;48.170;8.596;2023-09-08T13:59:54;5.82;;;4.13;;
21661;SDS011;10992;48.170;8.596;2023-09-08T14:02:23;3.83;;;3.42;;
21661;SDS011;10992;48.170;8.596;2023-09-08T14:04:53;4.35;;;3.83;;
21661;SDS011;10992;48.170;8.596;2023-09-08T14:07:27;4.05;;;3.53;;
21661;SDS011;10992;48.170;8.596;2023-09-08T14:10:03;4.70;;;3.75;;
21661;SDS011;10992;48.170;8.596;2023-09-08T14:12:37;4.63;;;4.13;;
21661;SDS011;10992;48.170;8.596;2023-09-08T14:15:04;4.30;;;3.75;;
21661;SDS011;10992;48.170;8.596;2023-09-08T14:17:32;5.43;;;3.80;;
21661;SDS011;10992;48.170;8.596;2023-09-08T14:19:59;4.60;;;4.07;;
21661;SDS011;10992;48.170;8.596;2023-09-08T14:22:26;4.50;;;4.10;;
21661;SDS011;10992;48.170;8.596;2023-09-08T14:24:53;4.88;;;4.10;;
21661;SDS011;10992;48.170;8.596;2023-09-08T14:27:20;5.20;;;4.00;;
21661;SDS011;10992;48.170;8.596;2023-09-08T14:29:47;5.72;;;3.63;;
21661;SDS011;10992;48.170;8.596;2023-09-08T14:32:14;6.60;;;4.30;;
21661;SDS011;10992;48.170;8.596;2023-09-08T14:34:41;4.78;;;3.90;;
21661;SDS011;10992;48.170;8.596;2023-09-08T14:37:08;5.75;;;4.05;;
21661;SDS011;10992;48.170;8.596;2023-09-08T14:39:37;4.57;;;3.95;;
21661;SDS011;10992;48.170;8.596;2023-09-08T14:42:04;8.02;;;4.10;;
21661;SDS011;10992;48.170;8.596;2023-09-08T14:44:32;5.05;;;4.25;;
21661;SDS011;10992;48.170;8.596;2023-09-08T14:46:59;5.88;;;3.88;;
21661;SDS011;10992;48.170;8.596;2023-09-08T14:49:26;5.53;;;3.90;;
21661;SDS011;10992;48.170;8.596;2023-09-08T14:51:53;6.18;;;3.97;;
21661;SDS011;10992;48.170;8.596;2023-09-08T14:54:20;4.90;;;3.67;;
21661;SDS011;10992;48.170;8.596;2023-09-08T14:56:47;6.10;;;4.30;;